Time;durP1;ratioP1;P1;durP2;ratioP2;P2;SDS_P1;SDS_P2;PMS_P1;PMS_P2;Temp;Humidity;BMP_temperature;BMP_pressure;BME280_temperature;BME280_humidity;BME280_pressure;Samples;Min_cycle;Max_cycle;Signal;HPM_P1;HPM_P2
2021/08/17 00:00:31;;;;;;;6.47;3.67;;;;;;;13.11;92.30;99237.09;5114417;28;20108;-81
2021/08/17 00:02:58;;;;;;;6.45;3.60;;;;;;;13.15;92.36;99241.13;5114540;28;20097;-81
2021/08/17 00:05:25;;;;;;;10.15;4.68;;;;;;;12.95;94.30;99242.88;5114887;28;20093;-81
2021/08/17 00:07:52;;;;;;;8.90;4.10;;;;;;;12.96;95.27;99220.84;5113457;28;20043;-81
2021/08/17 00:10:18;;;;;;;6.32;3.38;;;;;;;12.89;94.87;99220.81;5114553;28;20046;-80
2021/08/17 00:12:45;;;;;;;5.90;3.40;;;;;;;13.06;94.19;99231.41;5114401;28;20380;-81
2021/08/17 00:15:12;;;;;;;6.78;3.78;;;;;;;13.12;93.65;99241.53;5113970;28;20046;-81
2021/08/17 00:17:50;;;;;;;5.07;3.45;;;;;;;13.15;93.70;99252.06;5114811;28;20457;-81
2021/08/17 00:20:23;;;;;;;6.35;3.28;;;;;;;13.07;93.79;99233.13;5094290;28;20071;-81
2021/08/17 00:22:50;;;;;;;6.28;3.75;;;;;;;12.85;93.00;99226.88;5094394;28;20056;-81
2021/08/17 00:25:17;;;;;;;8.45;3.50;;;;;;;12.92;94.66;99236.78;5112702;28;20079;-81
2021/08/17 00:27:44;;;;;;;6.13;3.50;;;;;;;13.06;92.48;99248.63;5114556;28;20051;-81
2021/08/17 00:30:12;;;;;;;6.63;3.38;;;;;;;12.87;93.19;99231.09;5113357;28;20039;-81
2021/08/17 00:32:41;;;;;;;5.28;3.20;;;;;;;12.91;94.07;99239.72;5114355;28;20048;-81
2021/08/17 00:35:10;;;;;;;7.57;3.95;;;;;;;12.86;94.58;99239.47;5113833;28;20071;-81
2021/08/17 00:37:42;;;;;;;6.43;3.67;;;;;;;12.82;96.23;99238.16;5114410;28;20047;-81
2021/08/17 00:40:11;;;;;;;8.13;4.20;;;;;;;12.99;95.89;99246.91;5113908;28;20163;-81
2021/08/17 00:42:41;;;;;;;8.15;3.78;;;;;;;13.00;95.76;99238.50;5114204;28;20055;-81
2021/08/17 00:45:12;;;;;;;7.00;3.80;;;;;;;12.99;93.14;99250.50;5114206;28;20050;-80
2021/08/17 00:47:39;;;;;;;7.13;3.90;;;;;;;12.79;93.29;99238.56;5113853;28;20306;-81
2021/08/17 00:50:24;;;;;;;11.73;4.68;;;;;;;12.86;92.28;99259.41;5114410;28;20131;-80
2021/08/17 00:52:52;;;;;;;9.35;4.28;;;;;;;12.80;91.97;99249.28;5110817;28;20044;-81
2021/08/17 00:55:19;;;;;;;11.20;4.55;;;;;;;12.70;91.83;99246.03;5116800;27;20063;-81
2021/08/17 00:57:47;;;;;;;7.70;4.32;;;;;;;12.52;91.94;99239.16;5113206;28;20495;-81
2021/08/17 01:00:16;;;;;;;9.27;4.47;;;;;;;12.58;92.85;99237.53;5114178;28;20055;-80
2021/08/17 01:02:45;;;;;;;15.30;5.75;;;;;;;12.48;93.49;99232.44;5113429;28;20043;-81
2021/08/17 01:05:14;;;;;;;10.45;5.07;;;;;;;12.57;92.07;99250.34;5112663;28;20078;-81
2021/08/17 01:07:41;;;;;;;8.73;4.55;;;;;;;12.60;92.81;99264.63;5113445;28;20047;-80
2021/08/17 01:10:10;;;;;;;10.60;4.43;;;;;;;12.47;93.85;99255.28;5113516;28;20055;-80
2021/08/17 01:12:38;;;;;;;8.57;4.30;;;;;;;12.44;92.99;99260.28;5113572;28;20391;-81
2021/08/17 01:15:11;;;;;;;8.38;4.40;;;;;;;12.49;92.64;99271.44;5113243;28;20131;-80
2021/08/17 01:17:38;;;;;;;9.35;4.72;;;;;;;12.25;92.10;99264.50;5113550;28;20463;-80
2021/08/17 01:20:06;;;;;;;7.75;4.30;;;;;;;12.19;92.12;99264.25;5113008;28;20122;-81
2021/08/17 01:22:35;;;;;;;7.43;4.55;;;;;;;12.02;92.00;99255.44;5112800;28;20047;-80
2021/08/17 01:25:02;;;;;;;10.02;5.13;;;;;;;11.97;92.15;99267.97;5090966;28;20407;-80
2021/08/17 01:27:30;;;;;;;7.90;4.30;;;;;;;11.82;92.04;99257.91;5113107;28;20040;-81
2021/08/17 01:29:57;;;;;;;10.07;4.88;;;;;;;11.84;92.11;99274.06;5113114;28;20051;-80
2021/08/17 01:32:26;;;;;;;10.90;5.28;;;;;;;11.87;92.12;99295.47;5113257;28;20044;-80
2021/08/17 01:34:54;;;;;;;9.68;4.63;;;;;;;11.85;93.79;99290.22;5112140;28;20052;-80
2021/08/17 01:37:21;;;;;;;10.63;4.47;;;;;;;11.81;91.79;99301.66;5113163;28;20071;-81
2021/08/17 01:39:59;;;;;;;12.07;5.07;;;;;;;11.75;92.39;99321.50;5099085;28;20040;-81
2021/08/17 01:42:26;;;;;;;8.00;4.57;;;;;;;11.71;94.17;99328.34;5113093;28;20470;-80
2021/08/17 01:44:55;;;;;;;11.27;5.00;;;;;;;11.79;91.85;99333.72;5112752;28;20214;-81
2021/08/17 01:47:22;;;;;;;10.10;4.30;;;;;;;11.63;91.62;99324.69;5112315;28;20055;-81
2021/08/17 01:49:49;;;;;;;9.80;4.50;;;;;;;11.62;92.91;99316.69;5113325;28;20078;-81
2021/08/17 01:52:15;;;;;;;10.10;4.63;;;;;;;11.70;93.12;99316.63;5112657;28;20457;-80
2021/08/17 01:54:43;;;;;;;7.57;4.57;;;;;;;11.76;92.67;99339.53;5112488;28;20380;-80
2021/08/17 01:57:10;;;;;;;10.35;4.72;;;;;;;11.66;92.87;99318.84;5106184;28;20039;-80
2021/08/17 01:59:37;;;;;;;12.07;4.53;;;;;;;11.61;92.80;99321.31;5112661;28;20055;-80
2021/08/17 02:02:08;;;;;;;9.52;4.88;;;;;;;11.67;93.30;99323.28;5112568;28;20498;-80
2021/08/17 02:04:36;;;;;;;7.38;4.38;;;;;;;11.71;93.19;99325.63;5112229;28;20517;-81
2021/08/17 02:07:04;;;;;;;9.23;4.38;;;;;;;11.51;92.39;99316.13;5112731;28;20057;-81
2021/08/17 02:09:31;;;;;;;9.85;5.15;;;;;;;11.57;92.05;99327.31;5112288;28;20055;-80
2021/08/17 02:11:59;;;;;;;10.10;4.32;;;;;;;11.57;92.74;99335.50;5112636;28;20043;-80
2021/08/17 02:14:26;;;;;;;10.90;4.15;;;;;;;11.49;93.38;99329.09;5101174;28;20052;-80
2021/08/17 02:16:53;;;;;;;14.40;4.50;;;;;;;11.45;93.75;99333.22;5111372;28;20051;-80
2021/08/17 02:19:22;;;;;;;8.40;4.50;;;;;;;11.48;93.82;99327.41;5112618;28;20096;-80
2021/08/17 02:21:49;;;;;;;10.80;4.70;;;;;;;11.49;93.79;99333.72;5112305;28;20138;-80
2021/08/17 02:24:15;;;;;;;12.02;4.55;;;;;;;11.40;91.92;99329.38;5112048;28;20055;-80
2021/08/17 02:26:42;;;;;;;9.48;4.72;;;;;;;11.47;93.11;99349.38;5102989;28;20050;-80
2021/08/17 02:29:09;;;;;;;16.67;4.25;;;;;;;11.42;93.27;99352.66;5112453;28;20407;-80
2021/08/17 02:31:38;;;;;;;8.77;4.15;;;;;;;11.28;92.39;99327.09;5109572;28;20047;-80
2021/08/17 02:34:05;;;;;;;13.27;4.18;;;;;;;11.38;91.82;99350.47;5112296;28;20086;-80
2021/08/17 02:36:35;;;;;;;8.20;4.50;;;;;;;11.26;93.51;99352.81;5112115;28;20448;-80
2021/08/17 02:39:01;;;;;;;;;;;;;;;11.29;92.67;99366.91;5095193;28;20040;-80
2021/08/17 02:41:28;;;;;;;8.50;4.05;;;;;;;10.99;92.52;99352.38;5111855;28;20350;-80
2021/08/17 02:43:55;;;;;;;9.05;4.30;;;;;;;10.95;92.97;99367.38;5111987;28;20128;-80
2021/08/17 02:46:21;;;;;;;7.18;3.90;;;;;;;10.71;93.34;99357.53;5111765;28;20550;-80
2021/08/17 02:48:48;;;;;;;10.63;4.18;;;;;;;10.68;93.80;99357.91;5111403;28;20544;-80
2021/08/17 02:51:16;;;;;;;8.02;3.60;;;;;;;10.91;93.78;99372.31;5111938;28;20546;-79
2021/08/17 02:53:44;;;;;;;7.32;3.65;;;;;;;10.86;93.91;99369.31;5111716;28;20141;-79
2021/08/17 02:56:11;;;;;;;8.88;4.40;;;;;;;10.76;94.20;99365.97;5112235;28;20044;-80
2021/08/17 02:58:38;;;;;;;9.68;4.55;;;;;;;10.77;94.17;99365.78;5111620;28;20077;-80
2021/08/17 03:01:04;;;;;;;9.27;4.18;;;;;;;10.82;93.98;99381.56;5112317;28;20105;-80
2021/08/17 03:03:31;;;;;;;10.25;4.47;;;;;;;10.68;93.65;99372.31;5111762;28;20097;-80
2021/08/17 03:05:58;;;;;;;9.27;4.57;;;;;;;10.62;93.07;99382.03;5110993;28;20480;-80
2021/08/17 03:08:25;;;;;;;10.07;3.65;;;;;;;10.49;92.78;99372.78;5112050;28;20052;-80
2021/08/17 03:10:53;;;;;;;8.52;3.97;;;;;;;10.41;94.08;99373.69;5111956;28;20048;-80
2021/08/17 03:13:19;;;;;;;10.63;4.32;;;;;;;10.47;93.23;99392.00;5111656;28;20043;-81
2021/08/17 03:15:46;;;;;;;6.93;3.92;;;;;;;10.45;92.51;99373.16;5111662;28;20048;-80
2021/08/17 03:18:13;;;;;;;5.50;3.20;;;;;;;10.25;93.08;99372.72;5111597;28;20392;-81
2021/08/17 03:20:40;;;;;;;5.55;3.53;;;;;;;10.27;92.42;99375.28;5111794;28;20109;-80
2021/08/17 03:23:08;;;;;;;5.57;3.38;;;;;;;10.13;93.19;99363.25;5093082;28;20098;-80
2021/08/17 03:25:35;;;;;;;10.38;4.03;;;;;;;10.11;93.08;99376.19;5111333;28;20040;-80
2021/08/17 03:28:04;;;;;;;7.95;3.63;;;;;;;10.01;92.51;99367.41;5111608;28;20101;-80
2021/08/17 03:30:31;;;;;;;10.77;3.88;;;;;;;10.02;93.09;99360.94;5111745;28;20054;-80
2021/08/17 03:32:57;;;;;;;10.10;4.13;;;;;;;10.16;93.75;99359.34;5111817;28;20487;-80
2021/08/17 03:35:25;;;;;;;7.10;4.43;;;;;;;10.10;93.82;99358.19;5111531;28;20097;-80
2021/08/17 03:37:52;;;;;;;7.00;3.65;;;;;;;10.10;93.94;99382.63;5111885;28;20079;-81
2021/08/17 03:40:21;;;;;;;8.27;4.38;;;;;;;9.89;93.28;99378.66;5111091;28;20116;-80
2021/08/17 03:42:48;;;;;;;6.80;4.05;;;;;;;9.81;93.96;99370.53;5111858;28;20055;-80
2021/08/17 03:45:19;;;;;;;8.98;4.05;;;;;;;9.89;94.01;99386.81;5115117;28;20048;-80
2021/08/17 03:47:46;;;;;;;9.20;3.75;;;;;;;9.93;93.54;99395.44;5114868;28;20047;-80
2021/08/17 03:50:14;;;;;;;8.07;4.10;;;;;;;9.78;93.70;99392.59;5115727;28;20054;-80
2021/08/17 03:52:43;;;;;;;9.57;3.75;;;;;;;9.77;93.59;99366.50;5114870;28;20089;-80
2021/08/17 03:55:10;;;;;;;9.82;4.05;;;;;;;9.77;93.90;99392.78;5115152;28;20116;-80
2021/08/17 03:57:37;;;;;;;8.85;3.75;;;;;;;9.79;93.94;99396.19;5101081;28;20064;-81
2021/08/17 04:00:05;;;;;;;10.52;4.22;;;;;;;9.70;94.84;99393.47;5113897;28;20048;-80
2021/08/17 04:02:33;;;;;;;5.65;3.42;;;;;;;9.54;94.43;99388.94;5115211;28;20051;-80
2021/08/17 04:05:00;;;;;;;8.85;4.00;;;;;;;9.52;94.23;99395.56;5114311;28;20039;-80
2021/08/17 04:07:27;;;;;;;11.02;4.20;;;;;;;9.53;94.38;99406.25;5114930;28;20552;-80
2021/08/17 04:09:53;;;;;;;7.80;3.85;;;;;;;9.51;94.60;99397.41;5115266;28;20043;-80
2021/08/17 04:12:20;;;;;;;8.98;3.75;;;;;;;9.58;94.01;99405.72;5113384;28;20048;-79
2021/08/17 04:14:47;;;;;;;7.20;3.85;;;;;;;9.54;94.04;99416.09;5114660;28;20052;-81
2021/08/17 04:17:14;;;;;;;7.70;4.35;;;;;;;9.44;95.10;99415.41;5114390;28;20054;-81
2021/08/17 04:19:43;;;;;;;11.60;4.32;;;;;;;9.41;95.50;99421.19;5114560;28;20524;-80
2021/08/17 04:22:21;;;;;;;9.02;4.75;;;;;;;9.43;96.65;99429.16;5114621;28;20048;-81
2021/08/17 04:24:48;;;;;;;8.25;4.97;;;;;;;9.62;96.60;99427.94;5114629;28;20388;-80
2021/08/17 04:27:14;;;;;;;8.77;4.47;;;;;;;9.56;97.22;99413.19;5108674;28;20044;-81
2021/08/17 04:29:43;;;;;;;10.60;4.65;;;;;;;9.82;97.02;99431.97;5094065;28;20051;-80
2021/08/17 04:32:09;;;;;;;9.68;4.85;;;;;;;9.90;96.93;99421.06;5102439;28;20055;-80
2021/08/17 04:34:36;;;;;;;7.95;3.65;;;;;;;9.94;96.91;99413.44;5113982;28;20514;-81
2021/08/17 04:37:05;;;;;;;6.93;3.85;;;;;;;10.01;96.44;99419.88;5114297;28;20376;-80
2021/08/17 04:39:32;;;;;;;9.27;4.25;;;;;;;10.13;95.86;99427.63;5114526;28;20117;-80
2021/08/17 04:41:59;;;;;;;10.38;4.30;;;;;;;10.05;96.39;99417.63;5114231;28;20490;-80
2021/08/17 04:44:26;;;;;;;8.70;4.25;;;;;;;10.17;96.01;99416.22;5113437;28;20203;-80
2021/08/17 04:46:53;;;;;;;9.13;3.95;;;;;;;10.12;95.66;99409.63;5114104;28;20104;-81
2021/08/17 04:49:20;;;;;;;8.63;4.15;;;;;;;10.13;95.74;99433.88;5113753;28;20043;-80
2021/08/17 04:51:46;;;;;;;6.40;3.58;;;;;;;10.10;94.87;99424.25;5114071;28;20051;-80
2021/08/17 04:54:14;;;;;;;9.50;3.83;;;;;;;10.08;95.28;99423.56;5120228;27;20471;-80
2021/08/17 04:56:41;;;;;;;6.82;3.78;;;;;;;9.98;95.31;99420.22;5134060;27;20055;-81
2021/08/17 04:59:08;;;;;;;8.82;4.50;;;;;;;10.04;95.68;99421.38;5130139;27;20518;-81
2021/08/17 05:01:35;;;;;;;8.00;4.00;;;;;;;10.13;96.63;99420.31;5104291;28;20055;-81
2021/08/17 05:04:04;;;;;;;11.43;4.03;;;;;;;10.17;96.51;99435.25;5093340;28;20063;-81
2021/08/17 05:06:30;;;;;;;8.38;4.13;;;;;;;10.25;97.00;99435.22;5113487;28;20495;-81
2021/08/17 05:08:57;;;;;;;8.43;4.45;;;;;;;10.25;96.80;99447.94;5114001;28;20051;-81
2021/08/17 05:11:25;;;;;;;8.80;4.28;;;;;;;10.34;96.42;99422.47;5125436;27;20399;-82
2021/08/17 05:13:52;;;;;;;21.38;9.90;;;;;;;10.42;96.40;99427.88;5133997;27;20645;-81
2021/08/17 05:16:19;;;;;;;25.38;13.23;;;;;;;10.57;96.54;99441.56;5130567;27;20058;-81
2021/08/17 05:18:46;;;;;;;15.90;8.95;;;;;;;10.45;97.31;99422.06;5113008;28;20108;-80
2021/08/17 05:21:13;;;;;;;16.63;8.10;;;;;;;10.57;96.43;99427.97;5113652;28;20047;-80
2021/08/17 05:23:40;;;;;;;11.82;6.47;;;;;;;10.67;96.44;99440.47;5113057;28;20047;-80
2021/08/17 05:26:07;;;;;;;10.27;4.68;;;;;;;10.79;95.65;99444.47;5113313;28;20044;-80
2021/08/17 05:28:36;;;;;;;10.30;4.97;;;;;;;10.73;95.64;99432.44;5111982;28;20047;-80
2021/08/17 05:31:02;;;;;;;8.50;4.95;;;;;;;10.84;96.15;99444.81;5113325;28;20061;-79
2021/08/17 05:33:29;;;;;;;11.10;5.32;;;;;;;10.78;96.31;99443.66;5112300;28;20040;-79
2021/08/17 05:35:56;;;;;;;10.80;4.65;;;;;;;10.87;96.50;99449.03;5100338;28;20044;-79
2021/08/17 05:38:23;;;;;;;8.98;5.15;;;;;;;10.90;96.40;99448.66;5101605;28;20070;-79
2021/08/17 05:40:49;;;;;;;13.43;5.05;;;;;;;10.96;97.10;99437.09;5113169;28;20483;-79
2021/08/17 05:43:16;;;;;;;11.32;5.72;;;;;;;10.92;98.21;99433.84;5112723;28;20105;-79
2021/08/17 05:45:44;;;;;;;11.52;5.25;;;;;;;11.21;96.11;99434.16;5112438;28;20392;-80
2021/08/17 05:48:11;;;;;;;11.60;5.07;;;;;;;11.23;96.41;99434.81;5112583;28;20043;-79
2021/08/17 05:50:38;;;;;;;19.23;10.02;;;;;;;11.19;96.21;99428.91;5112957;28;20055;-80
2021/08/17 05:53:05;;;;;;;9.73;6.53;;;;;;;11.29;96.46;99437.66;5113172;28;20043;-80
2021/08/17 05:55:32;;;;;;;10.07;5.65;;;;;;;11.46;95.27;99438.38;5114235;28;20051;-79
2021/08/17 05:58:03;;;;;;;11.43;5.40;;;;;;;12.08;93.51;99454.66;5114111;28;20097;-79
2021/08/17 06:00:29;;;;;;;;;;;;;;;12.34;91.35;99457.72;5114647;28;20059;-80
2021/08/17 06:02:58;;;;;;;12.27;5.45;;;;;;;12.56;89.06;99447.72;5114348;28;19926;-80
2021/08/17 06:05:26;;;;;;;9.02;4.70;;;;;;;12.93;87.57;99431.34;5113854;28;20135;-80
2021/08/17 06:07:52;;;;;;;10.30;5.50;;;;;;;13.18;87.26;99441.91;5113320;28;20050;-79
2021/08/17 06:10:20;;;;;;;11.48;5.13;;;;;;;13.73;83.79;99445.78;5114153;28;20100;-79
2021/08/17 06:12:48;;;;;;;9.10;4.40;;;;;;;13.80;83.84;99438.47;5113873;28;20063;-79
2021/08/17 06:15:16;;;;;;;9.48;4.45;;;;;;;13.97;83.15;99447.22;5113904;28;20139;-79
2021/08/17 06:17:45;;;;;;;10.55;5.30;;;;;;;14.21;81.46;99430.50;5113017;28;20052;-80
2021/08/17 06:20:13;;;;;;;10.02;4.60;;;;;;;14.63;80.34;99451.38;5112872;28;20048;-79
2021/08/17 06:22:40;;;;;;;11.52;4.78;;;;;;;14.76;79.79;99456.03;5112247;28;20083;-79
2021/08/17 06:25:09;;;;;;;11.00;4.28;;;;;;;14.69;78.73;99458.75;5112264;28;20449;-80
2021/08/17 06:27:37;;;;;;;8.98;4.50;;;;;;;14.65;77.26;99454.75;5111875;28;20079;-80
2021/08/17 06:30:05;;;;;;;7.40;3.97;;;;;;;14.54;77.80;99448.97;5112113;28;20096;-80
2021/08/17 06:32:32;;;;;;;9.25;4.43;;;;;;;14.54;78.59;99448.97;5112606;28;20051;-80
2021/08/17 06:34:59;;;;;;;6.10;4.25;;;;;;;14.33;77.54;99457.09;5111717;28;20516;-79
2021/08/17 06:37:27;;;;;;;9.60;4.80;;;;;;;14.50;79.86;99471.28;5112305;28;20047;-80
2021/08/17 06:39:54;;;;;;;12.48;4.60;;;;;;;14.72;77.12;99468.44;5111785;28;20039;-80
2021/08/17 06:42:20;;;;;;;9.40;4.10;;;;;;;14.50;77.41;99448.56;5112600;28;20105;-80
2021/08/17 06:44:47;;;;;;;11.10;4.53;;;;;;;15.10;75.15;99445.19;5110705;28;20110;-80
2021/08/17 06:47:14;;;;;;;9.38;4.43;;;;;;;15.15;75.02;99464.59;5111937;28;20047;-80
2021/08/17 06:49:41;;;;;;;7.90;3.80;;;;;;;15.45;73.85;99470.53;5111474;28;20047;-80
2021/08/17 06:52:08;;;;;;;10.13;4.35;;;;;;;15.62;73.29;99470.94;5112402;28;20036;-79
2021/08/17 06:54:36;;;;;;;7.35;4.15;;;;;;;15.86;74.93;99479.63;5112159;28;20456;-80
2021/08/17 06:57:04;;;;;;;11.45;4.53;;;;;;;15.17;76.01;99477.00;5112360;28;20047;-80
2021/08/17 06:59:30;;;;;;;9.15;4.05;;;;;;;15.07;74.32;99470.22;5112353;28;20044;-80
2021/08/17 07:01:57;;;;;;;9.18;4.43;;;;;;;15.38;75.78;99466.94;5111327;28;20063;-80
2021/08/17 07:04:24;;;;;;;8.48;4.28;;;;;;;15.82;72.93;99478.34;5112238;28;20101;-80
2021/08/17 07:06:51;;;;;;;9.23;4.53;;;;;;;15.63;72.90;99489.09;5104449;28;20188;-80
2021/08/17 07:09:18;;;;;;;11.38;4.22;;;;;;;15.83;71.52;99480.88;5091843;28;20052;-80
2021/08/17 07:11:46;;;;;;;10.60;4.82;;;;;;;15.58;72.49;99481.50;5097530;28;20067;-80
2021/08/17 07:14:12;;;;;;;8.07;4.30;;;;;;;15.60;72.90;99492.25;5111821;28;20043;-79
2021/08/17 07:16:39;;;;;;;10.73;5.05;;;;;;;15.76;72.80;99482.75;5111998;28;20059;-79
2021/08/17 07:19:06;;;;;;;7.95;4.32;;;;;;;16.12;71.74;99500.69;5115060;28;20058;-80
2021/08/17 07:21:33;;;;;;;10.50;4.75;;;;;;;15.66;72.78;99504.28;5116077;28;20056;-80
2021/08/17 07:24:02;;;;;;;7.15;4.38;;;;;;;15.72;72.65;99504.25;5110853;28;20117;-80
2021/08/17 07:26:28;;;;;;;8.50;4.38;;;;;;;15.45;73.46;99506.13;5095580;28;20411;-80
2021/08/17 07:28:57;;;;;;;9.95;5.22;;;;;;;15.32;75.54;99498.72;5110164;28;20135;-79
2021/08/17 07:31:23;;;;;;;9.73;5.40;;;;;;;14.82;74.93;99477.13;5116021;28;20052;-79
2021/08/17 07:33:50;;;;;;;11.40;4.93;;;;;;;14.83;76.35;99484.28;5115016;28;20051;-79
2021/08/17 07:36:17;;;;;;;10.80;5.18;;;;;;;14.99;73.38;99494.00;5115873;28;20055;-79
2021/08/17 07:38:43;;;;;;;9.75;4.95;;;;;;;15.33;74.05;99500.44;5115196;28;20064;-79
2021/08/17 07:41:10;;;;;;;8.82;4.57;;;;;;;15.17;74.21;99500.81;5114097;28;20043;-80
2021/08/17 07:43:37;;;;;;;12.52;5.03;;;;;;;14.85;74.50;99506.81;5115115;28;20048;-79
2021/08/17 07:46:05;;;;;;;10.20;5.43;;;;;;;15.47;73.37;99494.97;5115124;28;20047;-79
2021/08/17 07:48:33;;;;;;;10.75;4.80;;;;;;;15.98;72.38;99483.41;5115723;28;20220;-79
2021/08/17 07:51:00;;;;;;;11.40;4.82;;;;;;;16.09;72.33;99501.13;5114806;28;20501;-80
2021/08/17 07:53:26;;;;;;;7.72;4.78;;;;;;;16.19;71.01;99479.59;5115160;28;20071;-79
2021/08/17 07:55:53;;;;;;;12.43;5.20;;;;;;;16.53;70.97;99483.09;5113291;28;20100;-80
2021/08/17 07:58:20;;;;;;;12.15;5.20;;;;;;;16.59;69.24;99493.22;5094912;28;20479;-79
2021/08/17 08:00:47;;;;;;;7.20;4.63;;;;;;;16.70;67.79;99486.19;5099803;28;20473;-79
2021/08/17 08:03:15;;;;;;;9.40;4.35;;;;;;;16.29;67.33;99476.41;5114943;28;20460;-80
2021/08/17 08:05:41;;;;;;;12.20;5.13;;;;;;;15.79;70.46;99487.84;5115002;28;20047;-79
2021/08/17 08:08:09;;;;;;;13.38;5.07;;;;;;;15.77;71.39;99513.75;5114706;28;20055;-79
2021/08/17 08:10:36;;;;;;;9.90;4.75;;;;;;;15.79;66.62;99493.31;5115320;28;20051;-79
2021/08/17 08:13:03;;;;;;;8.50;5.72;;;;;;;15.75;67.85;99501.09;5112997;28;20083;-79
2021/08/17 08:15:29;;;;;;;11.35;4.68;;;;;;;15.60;68.35;99489.50;5115097;28;20419;-79
2021/08/17 08:17:56;;;;;;;9.88;4.75;;;;;;;15.16;68.42;99480.81;5114334;28;20051;-79
2021/08/17 08:20:25;;;;;;;10.40;4.57;;;;;;;15.28;68.42;99492.00;5115019;28;20092;-79
2021/08/17 08:22:51;;;;;;;8.15;4.45;;;;;;;15.48;67.53;99488.44;5114439;28;20052;-79
2021/08/17 08:25:19;;;;;;;9.00;4.40;;;;;;;15.85;68.05;99495.25;5114542;28;20043;-79
2021/08/17 08:27:47;;;;;;;11.07;5.70;;;;;;;16.18;69.91;99477.06;5114796;28;20043;-79
2021/08/17 08:30:16;;;;;;;12.07;4.47;;;;;;;16.52;66.16;99486.06;5104260;28;20102;-79
2021/08/17 08:32:42;;;;;;;8.65;4.60;;;;;;;16.70;64.99;99501.84;5094037;28;20051;-79
2021/08/17 08:35:10;;;;;;;9.25;4.80;;;;;;;17.13;64.02;99488.34;5085460;28;20052;-79
2021/08/17 08:37:38;;;;;;;8.35;4.75;;;;;;;17.06;61.44;99493.03;5114650;28;20055;-80
2021/08/17 08:40:08;;;;;;;8.48;5.00;;;;;;;17.16;61.23;99484.31;5114234;28;20048;-80
2021/08/17 08:42:35;;;;;;;8.75;4.30;;;;;;;16.87;61.96;99483.81;5114316;28;20051;-79
2021/08/17 08:45:02;;;;;;;12.88;4.60;;;;;;;16.72;60.68;99483.22;5113982;28;20055;-79
2021/08/17 08:47:30;;;;;;;8.98;4.53;;;;;;;16.54;62.70;99492.16;5113007;28;20048;-79
2021/08/17 08:49:57;;;;;;;9.85;5.07;;;;;;;16.55;62.53;99500.19;5114409;28;20051;-79
2021/08/17 08:52:24;;;;;;;10.27;5.50;;;;;;;16.61;62.90;99485.59;5113698;28;20048;-79
2021/08/17 08:54:52;;;;;;;9.45;4.43;;;;;;;16.73;62.54;99504.97;5113324;28;20568;-79
2021/08/17 08:57:19;;;;;;;9.32;5.05;;;;;;;16.71;60.58;99498.88;5113459;28;20047;-79
2021/08/17 08:59:46;;;;;;;8.85;4.90;;;;;;;16.53;61.25;99493.22;5114065;28;20419;-79
2021/08/17 09:02:19;;;;;;;7.93;3.90;;;;;;;16.79;59.45;99493.13;5113142;28;20055;-79
2021/08/17 09:05:01;;;;;;;11.50;4.47;;;;;;;16.89;60.17;99486.34;5115420;27;20050;-79
2021/08/17 09:07:42;;;;;;;8.02;3.95;;;;;;;16.50;59.42;99472.56;5113055;28;20073;-79
2021/08/17 09:10:26;;;;;;;8.60;3.92;;;;;;;16.87;60.63;99504.97;5093305;28;20385;-79
2021/08/17 09:12:55;;;;;;;6.78;4.28;;;;;;;16.77;59.61;99497.13;5095808;28;20044;-79
2021/08/17 09:15:24;;;;;;;10.52;4.50;;;;;;;16.88;60.03;99485.53;5114249;28;20062;-79
2021/08/17 09:18:02;;;;;;;7.65;4.00;;;;;;;17.16;62.41;99481.56;5114067;28;20051;-79
2021/08/17 09:20:34;;;;;;;8.75;4.80;;;;;;;17.19;58.69;99488.53;5108255;28;20130;-79
2021/08/17 09:23:25;;;;;;;9.40;4.88;;;;;;;17.07;59.51;99493.88;5113351;28;20051;-79
2021/08/17 09:25:54;;;;;;;8.77;4.47;;;;;;;16.79;59.27;99500.53;5113159;28;20104;-79
2021/08/17 09:28:31;;;;;;;8.50;4.93;;;;;;;16.91;60.31;99495.22;5113431;28;20092;-79
2021/08/17 09:31:00;;;;;;;9.65;4.55;;;;;;;17.13;59.68;99490.25;5113131;28;20048;-79
2021/08/17 09:33:38;;;;;;;9.90;5.55;;;;;;;17.60;57.42;99484.44;5113311;28;20051;-79
2021/08/17 09:36:06;;;;;;;11.90;5.47;;;;;;;17.86;58.49;99486.16;5112829;28;20101;-79
2021/08/17 09:38:33;;;;;;;9.68;4.50;;;;;;;18.15;57.18;99459.03;5112844;28;20561;-78
2021/08/17 09:41:18;;;;;;;8.13;4.25;;;;;;;18.18;56.85;99464.91;5113016;28;20075;-79
2021/08/17 09:43:56;;;;;;;11.27;4.75;;;;;;;18.31;55.92;99463.94;5112797;28;20047;-79
2021/08/17 09:46:27;;;;;;;7.55;4.15;;;;;;;17.93;57.88;99456.72;5112855;28;20143;-79
2021/08/17 09:48:54;;;;;;;9.35;3.92;;;;;;;17.84;55.85;99463.53;5112921;28;20611;-79
2021/08/17 09:51:31;;;;;;;7.50;3.75;;;;;;;17.59;55.06;99460.78;5112855;28;20051;-79
2021/08/17 09:54:11;;;;;;;9.77;4.28;;;;;;;17.43;56.06;99453.91;5104898;28;20059;-79
2021/08/17 09:56:46;;;;;;;8.83;4.67;;;;;;;17.36;52.55;99444.88;5110245;28;20496;-79
2021/08/17 09:59:19;;;;;;;8.43;3.97;;;;;;;17.50;54.48;99465.72;5112636;28;20039;-79
2021/08/17 10:01:49;;;;;;;8.00;4.18;;;;;;;17.72;55.47;99452.44;5112761;28;20134;-79
2021/08/17 10:04:16;;;;;;;8.38;4.50;;;;;;;17.65;56.25;99468.97;5112614;28;20104;-79
2021/08/17 10:06:44;;;;;;;8.23;4.20;;;;;;;17.65;53.90;99477.22;5112850;28;20130;-79
2021/08/17 10:09:14;;;;;;;5.95;4.05;;;;;;;17.82;54.91;99462.91;5112148;28;20146;-79
2021/08/17 10:11:44;;;;;;;5.90;3.72;;;;;;;18.08;56.10;99447.25;5107415;28;20047;-79
2021/08/17 10:14:12;;;;;;;8.55;3.92;;;;;;;18.04;52.46;99441.38;5112130;28;20556;-79
2021/08/17 10:16:39;;;;;;;12.65;4.55;;;;;;;18.36;53.21;99457.75;5112780;28;20092;-79
2021/08/17 10:19:07;;;;;;;8.82;4.15;;;;;;;18.02;53.96;99462.75;5112668;28;20042;-79
2021/08/17 10:21:34;;;;;;;9.15;4.38;;;;;;;18.03;52.26;99454.25;5111505;28;20101;-79
2021/08/17 10:24:29;;;;;;;7.63;4.10;;;;;;;18.06;53.01;99438.38;5092043;28;20101;-79
2021/08/17 10:27:20;;;;;;;8.60;4.38;;;;;;;18.01;54.23;99439.06;5105909;28;20453;-79
2021/08/17 10:30:10;;;;;;;7.55;3.53;;;;;;;17.84;53.55;99430.53;5112598;28;20088;-79
2021/08/17 10:32:51;;;;;;;6.55;4.03;;;;;;;18.11;54.67;99435.78;5112439;28;20495;-79
2021/08/17 10:35:55;;;;;;;8.93;3.90;;;;;;;18.06;51.83;99446.66;5112201;28;20436;-79
2021/08/17 10:38:46;;;;;;;8.25;3.05;;;;;;;17.99;53.38;99452.19;5099109;28;20491;-79
2021/08/17 10:41:13;;;;;;;6.30;3.85;;;;;;;18.09;52.30;99448.94;5105336;28;20126;-79
2021/08/17 10:44:31;;;;;;;11.27;4.00;;;;;;;18.17;54.20;99443.13;5112055;28;20043;-79
2021/08/17 10:47:06;;;;;;;8.10;3.72;;;;;;;18.29;54.61;99427.56;5047324;28;20053;-79
2021/08/17 10:49:51;;;;;;;8.95;4.57;;;;;;;18.24;52.32;99423.81;5047362;28;20393;-79
2021/08/17 10:52:31;;;;;;;7.88;4.18;;;;;;;18.33;52.98;99423.25;5094695;28;20047;-78
2021/08/17 10:55:22;;;;;;;7.15;4.07;;;;;;;18.40;52.34;99420.44;5114964;28;20057;-78
2021/08/17 10:57:51;;;;;;;5.22;3.53;;;;;;;18.56;52.93;99424.47;5114747;28;20427;-79
2021/08/17 11:00:55;;;;;;;7.13;3.75;;;;;;;18.80;49.85;99421.84;5116551;28;20044;-79
2021/08/17 11:03:49;;;;;;;6.45;4.18;;;;;;;18.61;52.15;99416.38;5115288;28;20134;-79
2021/08/17 11:06:41;;;;;;;6.50;3.97;;;;;;;18.64;50.58;99415.91;5116134;28;20517;-79
2021/08/17 11:09:09;;;;;;;9.30;3.67;;;;;;;18.90;51.97;99408.41;5115736;28;20047;-79
2021/08/17 11:11:37;;;;;;;7.93;3.95;;;;;;;18.83;47.85;99397.41;5115753;28;20048;-79
2021/08/17 11:14:07;;;;;;;7.47;3.55;;;;;;;19.17;48.29;99381.28;5115297;28;20044;-80
2021/08/17 11:16:40;;;;;;;10.38;3.88;;;;;;;19.34;48.63;99386.94;5116011;28;20104;-80
2021/08/17 11:19:11;;;;;;;7.55;3.67;;;;;;;19.47;50.09;99382.31;5115976;28;20096;-80
2021/08/17 11:21:40;;;;;;;8.82;4.72;;;;;;;19.77;50.72;99374.78;5115975;28;20092;-79
2021/08/17 11:24:24;;;;;;;7.65;4.35;;;;;;;20.08;53.10;99377.41;5115558;28;20047;-79
2021/08/17 11:26:55;;;;;;;10.90;4.65;;;;;;;20.12;46.45;99368.38;5114622;28;20051;-79
2021/08/17 11:29:44;;;;;;;7.45;4.43;;;;;;;19.79;47.44;99383.66;5115985;28;20047;-79
2021/08/17 11:32:14;;;;;;;9.65;4.32;;;;;;;19.61;49.41;99389.25;5106664;28;20059;-79
2021/08/17 11:34:42;;;;;;;;;;;;;;;20.09;50.84;99398.41;5116388;28;20050;-79
2021/08/17 11:37:10;;;;;;;6.65;3.78;;;;;;;19.80;46.22;99393.63;5115449;28;19919;-79
2021/08/17 11:39:41;;;;;;;6.18;3.45;;;;;;;19.71;44.68;99402.47;5115572;28;20046;-79
2021/08/17 11:42:11;;;;;;;6.82;3.63;;;;;;;19.78;45.10;99394.91;5114197;27;20104;-79